Time;durP1;ratioP1;P1;durP2;ratioP2;P2;SDS_P1;SDS_P2;PMS_P1;PMS_P2;Temp;Humidity;BMP_temperature;BMP_pressure;BME280_temperature;BME280_humidity;BME280_pressure;Samples;Min_cycle;Max_cycle;Signal;HPM_P1;HPM_P2
2023/07/22 00:08:27;;;;;;;11.3;7.2;;;;;;;17.72;89.35;;;;;
2023/07/22 00:18:27;;;;;;;9.1;5.8;;;;;;;17.49;90.05;;;;;
2023/07/22 00:29:27;;;;;;;9.1;5.8;;;;;;;17.4;90.25;;;;;
2023/07/22 00:39:27;;;;;;;9.1;5.8;;;;;;;17.57;89.7;;;;;
2023/07/22 00:49:28;;;;;;;10;5.2;;;;;;;17.48;89.51;;;;;
2023/07/22 00:59:28;;;;;;;10;5.2;;;;;;;17.41;89.64;;;;;
2023/07/22 01:10:28;;;;;;;10;5.2;;;;;;;17.22;90.22;;;;;
2023/07/22 01:20:28;;;;;;;8.1;5.9;;;;;;;17.06;89.69;;;;;
2023/07/22 01:30:33;;;;;;;8.1;5.9;;;;;;;16.88;90.15;;;;;
2023/07/22 01:41:28;;;;;;;8.1;5.9;;;;;;;16.76;89.57;;;;;
2023/07/22 01:52:28;;;;;;;9.8;5.8;;;;;;;16.86;89.4;;;;;
2023/07/22 02:02:28;;;;;;;9.8;5.8;;;;;;;16.88;88.74;;;;;
2023/07/22 02:13:28;;;;;;;9.8;5.8;;;;;;;16.71;89.31;;;;;
2023/07/22 02:24:28;;;;;;;5.9;4.4;;;;;;;16.61;90.52;;;;;
2023/07/22 02:35:28;;;;;;;5.9;4.4;;;;;;;16.75;89.73;;;;;
2023/07/22 02:45:28;;;;;;;5.9;4.4;;;;;;;16.64;89.06;;;;;
2023/07/22 02:56:28;;;;;;;6;4;;;;;;;16.64;89.13;;;;;
2023/07/22 03:07:28;;;;;;;6;4;;;;;;;16.69;88.66;;;;;
2023/07/22 03:17:28;;;;;;;6.7;4;;;;;;;16.47;89.33;;;;;
2023/07/22 03:28:28;;;;;;;6.7;4;;;;;;;16.61;89.08;;;;;
2023/07/22 03:38:28;;;;;;;6.7;4;;;;;;;16.69;88.84;;;;;
2023/07/22 03:48:28;;;;;;;6.9;3.6;;;;;;;16.77;88.58;;;;;
2023/07/22 03:59:28;;;;;;;6.9;3.6;;;;;;;16.85;88.23;;;;;
2023/07/22 04:09:28;;;;;;;6.9;3.6;;;;;;;17.02;88.27;;;;;
2023/07/22 04:19:28;;;;;;;8.2;3.5;;;;;;;17.13;88.22;;;;;
2023/07/22 04:30:28;;;;;;;8.2;3.5;;;;;;;17.39;87.86;;;;;
2023/07/22 04:41:28;;;;;;;8.2;3.5;;;;;;;17.51;88.35;;;;;
2023/07/22 04:52:28;;;;;;;7.2;4.5;;;;;;;17.95;88.48;;;;;
2023/07/22 05:02:30;;;;;;;7.2;4.5;;;;;;;18.36;87.28;;;;;
2023/07/22 05:13:28;;;;;;;7.2;4.5;;;;;;;18.59;85.68;;;;;
2023/07/22 05:23:28;;;;;;;14.5;6.6;;;;;;;18.56;85.19;;;;;
2023/07/22 05:33:28;;;;;;;14.5;6.6;;;;;;;18.42;84.85;;;;;
2023/07/22 05:44:28;;;;;;;14.5;6.6;;;;;;;18.33;85.19;;;;;
2023/07/22 05:54:28;;;;;;;10;6.7;;;;;;;18.14;84.73;;;;;
2023/07/22 06:05:28;;;;;;;10;6.7;;;;;;;18.01;84.79;;;;;
2023/07/22 06:15:28;;;;;;;10;6.7;;;;;;;17.85;85.98;;;;;
2023/07/22 06:26:28;;;;;;;10.1;6.2;;;;;;;18.32;85.01;;;;;
2023/07/22 06:36:28;;;;;;;10.1;6.2;;;;;;;18.83;82.31;;;;;
2023/07/22 06:47:28;;;;;;;11.3;7.5;;;;;;;19.85;79.54;;;;;
2023/07/22 06:58:28;;;;;;;11.3;7.5;;;;;;;19.92;78.15;;;;;
2023/07/22 07:08:30;;;;;;;11.3;7.5;;;;;;;20.03;76.3;;;;;
2023/07/22 07:19:28;;;;;;;9.8;6.9;;;;;;;20.13;76.37;;;;;
2023/07/22 07:30:29;;;;;;;9.8;6.9;;;;;;;20.12;73.98;;;;;
2023/07/22 07:41:28;;;;;;;9.8;6.9;;;;;;;20.32;72.38;;;;;
2023/07/22 07:52:28;;;;;;;10.3;7.7;;;;;;;20.84;71.9;;;;;
2023/07/22 08:02:30;;;;;;;10.3;7.7;;;;;;;20.82;69.26;;;;;
2023/07/22 08:13:30;;;;;;;10.3;7.7;;;;;;;21.7;68.21;;;;;
2023/07/22 08:24:28;;;;;;;8.3;5.2;;;;;;;21.37;68.23;;;;;
2023/07/22 08:34:28;;;;;;;8.3;5.2;;;;;;;20.63;67.04;;;;;
2023/07/22 08:45:29;;;;;;;8.3;5.2;;;;;;;21.03;65.8;;;;;
2023/07/22 08:56:28;;;;;;;7.2;4.3;;;;;;;21.32;67.82;;;;;
2023/07/22 09:06:28;;;;;;;7.2;4.3;;;;;;;21.66;64.25;;;;;
2023/07/22 09:16:29;;;;;;;7.2;4.3;;;;;;;21.53;64.54;;;;;
2023/07/22 09:27:28;;;;;;;7.2;3.9;;;;;;;21.5;64;;;;;
2023/07/22 09:37:28;;;;;;;7.2;3.9;;;;;;;22.37;64.72;;;;;
2023/07/22 09:47:28;;;;;;;6.1;3.1;;;;;;;22.58;60.15;;;;;
2023/07/22 09:57:28;;;;;;;6.1;3.1;;;;;;;22.36;60.85;;;;;
2023/07/22 10:07:28;;;;;;;6.1;3.1;;;;;;;22.38;58.2;;;;;
2023/07/22 10:17:29;;;;;;;4.5;2.5;;;;;;;22.52;57.85;;;;;
2023/07/22 10:28:28;;;;;;;4.5;2.5;;;;;;;22.66;54.59;;;;;
2023/07/22 10:39:28;;;;;;;4.5;2.5;;;;;;;23.05;58.2;;;;;
2023/07/22 10:50:28;;;;;;;3.8;2.2;;;;;;;23.54;53.47;;;;;
2023/07/22 11:00:32;;;;;;;3.8;2.2;;;;;;;23.61;51.76;;;;;
2023/07/22 11:11:29;;;;;;;3.8;2.2;;;;;;;23.59;50.6;;;;;
2023/07/22 11:22:29;;;;;;;5.8;2.3;;;;;;;23.99;51.46;;;;;
2023/07/22 11:32:29;;;;;;;5.8;2.3;;;;;;;23.97;50.86;;;;;
2023/07/22 11:43:28;;;;;;;5.8;2.3;;;;;;;24.86;51.52;;;;;
2023/07/22 11:53:29;;;;;;;3.8;1.9;;;;;;;25.26;47.73;;;;;
2023/07/22 12:03:28;;;;;;;3.8;1.9;;;;;;;24.9;48.81;;;;;
2023/07/22 12:14:28;;;;;;;3.8;1.9;;;;;;;24.54;49.97;;;;;
2023/07/22 12:24:29;;;;;;;4.6;2.3;;;;;;;24.49;49.63;;;;;
2023/07/22 12:35:28;;;;;;;4.6;2.3;;;;;;;24.46;53.34;;;;;
2023/07/22 12:45:29;;;;;;;4.6;2.3;;;;;;;24.06;51.24;;;;;
2023/07/22 12:56:28;;;;;;;5;2.3;;;;;;;24.57;49.91;;;;;
2023/07/22 13:06:28;;;;;;;5;2.3;;;;;;;24.83;45.89;;;;;
2023/07/22 13:17:29;;;;;;;5;2.3;;;;;;;24.77;46.47;;;;;
2023/07/22 13:28:28;;;;;;;5.1;2.3;;;;;;;25.4;45.93;;;;;
2023/07/22 13:38:29;;;;;;;5.1;2.3;;;;;;;25.65;45.93;;;;;
2023/07/22 13:48:29;;;;;;;3.9;1.8;;;;;;;25.73;45.37;;;;;
2023/07/22 13:58:29;;;;;;;3.9;1.8;;;;;;;25.46;44.93;;;;;
2023/07/22 14:08:29;;;;;;;3.9;1.8;;;;;;;25.61;45.54;;;;;
2023/07/22 14:18:29;;;;;;;5;2.7;;;;;;;24.87;48.14;;;;;
2023/07/22 14:29:29;;;;;;;5;2.7;;;;;;;24.62;47.26;;;;;
2023/07/22 14:39:29;;;;;;;5;2.7;;;;;;;24.33;47.1;;;;;
2023/07/22 14:50:29;;;;;;;4.8;2.2;;;;;;;24.23;47.03;;;;;
2023/07/22 15:00:31;;;;;;;4.8;2.2;;;;;;;24.24;46.32;;;;;
2023/07/22 15:11:29;;;;;;;4.8;2.2;;;;;;;23.55;46.7;;;;;
2023/07/22 15:22:29;;;;;;;4.1;2.1;;;;;;;22.9;49.21;;;;;
2023/07/22 15:32:29;;;;;;;4.1;2.1;;;;;;;24.76;45.69;;;;;
2023/07/22 15:42:29;;;;;;;4.1;2.1;;;;;;;27.29;39.95;;;;;
2023/07/22 15:53:29;;;;;;;3.8;2.1;;;;;;;28.34;38.33;;;;;
2023/07/22 16:03:29;;;;;;;3.8;2.1;;;;;;;29.45;35.36;;;;;
2023/07/22 16:14:29;;;;;;;3.8;2.1;;;;;;;28.38;36.32;;;;;
2023/07/22 16:25:29;;;;;;;6.5;3;;;;;;;27.42;39.29;;;;;
2023/07/22 16:35:30;;;;;;;6.5;3;;;;;;;27.04;39.41;;;;;
2023/07/22 16:45:29;;;;;;;6.5;3;;;;;;;26.48;39.9;;;;;
2023/07/22 16:55:29;;;;;;;5.8;2.9;;;;;;;26.7;39.86;;;;;
2023/07/22 17:05:29;;;;;;;5.8;2.9;;;;;;;26.47;40.39;;;;;
2023/07/22 17:15:29;;;;;;;5.8;2.9;;;;;;;26.97;40.14;;;;;
2023/07/22 17:26:29;;;;;;;6.3;2.8;;;;;;;25.61;42.28;;;;;
2023/07/22 17:36:30;;;;;;;6.3;2.8;;;;;;;24.73;47.51;;;;;
2023/07/22 17:46:30;;;;;;;6.3;2.8;;;;;;;23.99;48.34;;;;;
2023/07/22 17:57:29;;;;;;;5.8;3.2;;;;;;;23.12;52.08;;;;;
2023/07/22 18:07:29;;;;;;;5.8;3.2;;;;;;;22.4;52.92;;;;;
2023/07/22 18:18:29;;;;;;;7.1;4.3;;;;;;;21.67;56.6;;;;;
2023/07/22 18:29:29;;;;;;;7.1;4.3;;;;;;;21.25;57.02;;;;;
2023/07/22 18:39:29;;;;;;;7.1;4.3;;;;;;;20.95;57.31;;;;;
2023/07/22 18:49:30;;;;;;;8.7;5.6;;;;;;;20.63;59.28;;;;;
2023/07/22 19:00:32;;;;;;;8.7;5.6;;;;;;;20.21;62.2;;;;;
2023/07/22 19:11:29;;;;;;;8.7;5.6;;;;;;;20.05;61.16;;;;;
2023/07/22 19:22:29;;;;;;;7.8;5.3;;;;;;;19.63;60.49;;;;;
2023/07/22 19:32:31;;;;;;;7.8;5.3;;;;;;;19.08;62.39;;;;;
2023/07/22 19:42:31;;;;;;;7.8;5.3;;;;;;;18.61;67.07;;;;;
2023/07/22 19:53:31;;;;;;;10.4;8.2;;;;;;;18.27;67.44;;;;;
2023/07/22 20:04:32;;;;;;;10.4;8.2;;;;;;;17.92;68.51;;;;;
2023/07/22 20:15:33;;;;;;;10.4;8.2;;;;;;;17.49;70.49;;;;;
2023/07/22 20:26:31;;;;;;;12.3;7.8;;;;;;;17.15;73.31;;;;;
2023/07/22 20:36:31;;;;;;;12.3;7.8;;;;;;;16.86;72.44;;;;;
2023/07/22 20:46:31;;;;;;;12.3;7.8;;;;;;;16.59;73.69;;;;;
2023/07/22 20:57:31;;;;;;;10.1;7.2;;;;;;;16.31;76.03;;;;;
2023/07/22 21:08:31;;;;;;;10.1;7.2;;;;;;;16.16;76.09;;;;;
2023/07/22 21:18:32;;;;;;;9.9;7.5;;;;;;;16;76.63;;;;;
2023/07/22 21:28:31;;;;;;;9.9;7.5;;;;;;;15.91;77.41;;;;;
2023/07/22 21:39:31;;;;;;;9.9;7.5;;;;;;;15.76;76.94;;;;;
2023/07/22 21:49:31;;;;;;;9.9;7.5;;;;;;;15.6;76.8;;;;;
2023/07/22 21:59:31;;;;;;;9.9;7.5;;;;;;;15.37;78.16;;;;;
2023/07/22 22:10:31;;;;;;;9.9;7.5;;;;;;;15.11;78.75;;;;;
2023/07/22 22:21:31;;;;;;;11.7;7.7;;;;;;;14.92;79.07;;;;;
2023/07/22 22:31:31;;;;;;;11.7;7.7;;;;;;;14.75;78.99;;;;;
2023/07/22 22:42:31;;;;;;;11.7;7.7;;;;;;;14.52;80.06;;;;;
2023/07/22 22:53:31;;;;;;;12.2;7.5;;;;;;;14.35;81.33;;;;;
2023/07/22 23:03:31;;;;;;;12.2;7.5;;;;;;;14.19;81.67;;;;;
2023/07/22 23:14:32;;;;;;;12.2;7.5;;;;;;;14.08;83.95;;;;;
2023/07/22 23:25:31;;;;;;;9.6;7.2;;;;;;;13.98;82.76;;;;;
2023/07/22 23:36:31;;;;;;;9.6;7.2;;;;;;;13.82;83.82;;;;;
2023/07/22 23:47:31;;;;;;;9.6;7.2;;;;;;;13.69;84.51;;;;;
2023/07/22 23:57:31;;;;;;;7.7;6;;;;;;;13.61;84.86;;;;;
